sensor_id;sensor_type;location;lat;lon;timestamp;P1;durP1;ratioP1;P2;durP2;ratioP2
3875;SDS011;1953;51.222;6.624;2023-03-05T00:04:40;8.93;;;3.33;;
3875;SDS011;1953;51.222;6.624;2023-03-05T00:10:03;7.70;;;2.70;;
3875;SDS011;1953;51.222;6.624;2023-03-05T00:14:46;9.50;;;2.90;;
3875;SDS011;1953;51.222;6.624;2023-03-05T00:19:28;13.60;;;2.97;;
3875;SDS011;1953;51.222;6.624;2023-03-05T00:24:11;11.33;;;3.50;;
3875;SDS011;1953;51.222;6.624;2023-03-05T00:28:57;13.40;;;3.40;;
3875;SDS011;1953;51.222;6.624;2023-03-05T00:33:40;13.47;;;3.90;;
3875;SDS011;1953;51.222;6.624;2023-03-05T00:38:22;6.80;;;2.40;;
3875;SDS011;1953;51.222;6.624;2023-03-05T00:43:05;8.70;;;3.00;;
3875;SDS011;1953;51.222;6.624;2023-03-05T00:47:50;7.43;;;2.40;;
3875;SDS011;1953;51.222;6.624;2023-03-05T00:52:32;10.47;;;3.50;;
3875;SDS011;1953;51.222;6.624;2023-03-05T00:57:14;12.43;;;3.10;;
3875;SDS011;1953;51.222;6.624;2023-03-05T01:01:57;10.50;;;2.90;;
3875;SDS011;1953;51.222;6.624;2023-03-05T01:06:41;11.43;;;3.53;;
3875;SDS011;1953;51.222;6.624;2023-03-05T01:11:25;13.50;;;3.30;;
3875;SDS011;1953;51.222;6.624;2023-03-05T01:16:08;7.73;;;2.77;;
3875;SDS011;1953;51.222;6.624;2023-03-05T01:20:50;7.27;;;2.37;;
3875;SDS011;1953;51.222;6.624;2023-03-05T01:25:34;8.13;;;2.40;;
3875;SDS011;1953;51.222;6.624;2023-03-05T01:30:17;7.90;;;2.63;;
3875;SDS011;1953;51.222;6.624;2023-03-05T01:35:00;16.30;;;2.70;;
3875;SDS011;1953;51.222;6.624;2023-03-05T01:39:42;7.80;;;2.87;;
3875;SDS011;1953;51.222;6.624;2023-03-05T01:44:27;9.67;;;3.00;;
3875;SDS011;1953;51.222;6.624;2023-03-05T01:49:11;9.20;;;2.77;;
3875;SDS011;1953;51.222;6.624;2023-03-05T01:53:58;15.93;;;3.13;;
3875;SDS011;1953;51.222;6.624;2023-03-05T01:58:42;5.40;;;3.07;;
3875;SDS011;1953;51.222;6.624;2023-03-05T02:03:26;20.90;;;4.20;;
3875;SDS011;1953;51.222;6.624;2023-03-05T02:08:09;12.20;;;4.07;;
3875;SDS011;1953;51.222;6.624;2023-03-05T02:12:55;14.40;;;3.50;;
3875;SDS011;1953;51.222;6.624;2023-03-05T02:17:41;9.77;;;3.77;;
3875;SDS011;1953;51.222;6.624;2023-03-05T02:22:25;13.93;;;3.67;;
3875;SDS011;1953;51.222;6.624;2023-03-05T02:27:07;5.00;;;2.93;;
3875;SDS011;1953;51.222;6.624;2023-03-05T02:31:50;8.77;;;3.60;;
3875;SDS011;1953;51.222;6.624;2023-03-05T02:36:32;13.50;;;3.20;;
3875;SDS011;1953;51.222;6.624;2023-03-05T02:41:16;10.90;;;3.67;;
3875;SDS011;1953;51.222;6.624;2023-03-05T02:45:58;12.20;;;3.70;;
3875;SDS011;1953;51.222;6.624;2023-03-05T02:50:41;8.90;;;4.07;;
3875;SDS011;1953;51.222;6.624;2023-03-05T02:55:24;6.10;;;3.30;;
3875;SDS011;1953;51.222;6.624;2023-03-05T03:00:09;14.20;;;3.67;;
3875;SDS011;1953;51.222;6.624;2023-03-05T03:04:52;7.97;;;3.20;;
3875;SDS011;1953;51.222;6.624;2023-03-05T03:09:34;9.73;;;2.73;;
3875;SDS011;1953;51.222;6.624;2023-03-05T03:14:17;7.80;;;2.33;;
3875;SDS011;1953;51.222;6.624;2023-03-05T03:19:01;9.17;;;2.47;;
3875;SDS011;1953;51.222;6.624;2023-03-05T03:23:43;9.23;;;2.63;;
3875;SDS011;1953;51.222;6.624;2023-03-05T03:28:25;7.23;;;2.40;;
3875;SDS011;1953;51.222;6.624;2023-03-05T03:33:08;5.07;;;2.27;;
3875;SDS011;1953;51.222;6.624;2023-03-05T03:37:52;12.77;;;3.00;;
3875;SDS011;1953;51.222;6.624;2023-03-05T03:42:34;11.53;;;2.50;;
3875;SDS011;1953;51.222;6.624;2023-03-05T03:47:17;7.87;;;2.70;;
3875;SDS011;1953;51.222;6.624;2023-03-05T03:51:59;8.23;;;3.10;;
3875;SDS011;1953;51.222;6.624;2023-03-05T03:56:43;9.37;;;3.20;;
3875;SDS011;1953;51.222;6.624;2023-03-05T04:01:26;8.20;;;3.00;;
3875;SDS011;1953;51.222;6.624;2023-03-05T04:06:08;13.93;;;3.47;;
3875;SDS011;1953;51.222;6.624;2023-03-05T04:10:51;10.63;;;4.17;;
3875;SDS011;1953;51.222;6.624;2023-03-05T04:15:35;10.63;;;3.13;;
3875;SDS011;1953;51.222;6.624;2023-03-05T04:20:17;12.03;;;3.50;;
3875;SDS011;1953;51.222;6.624;2023-03-05T04:25:00;7.47;;;3.40;;
3875;SDS011;1953;51.222;6.624;2023-03-05T04:29:46;9.47;;;2.80;;
3875;SDS011;1953;51.222;6.624;2023-03-05T04:34:29;9.83;;;3.30;;
3875;SDS011;1953;51.222;6.624;2023-03-05T04:39:12;9.33;;;2.73;;
3875;SDS011;1953;51.222;6.624;2023-03-05T04:43:55;13.83;;;3.23;;
3875;SDS011;1953;51.222;6.624;2023-03-05T04:48:37;11.30;;;3.07;;
3875;SDS011;1953;51.222;6.624;2023-03-05T04:53:21;14.60;;;3.27;;
3875;SDS011;1953;51.222;6.624;2023-03-05T04:58:03;8.97;;;3.37;;
3875;SDS011;1953;51.222;6.624;2023-03-05T05:02:46;10.30;;;3.17;;
3875;SDS011;1953;51.222;6.624;2023-03-05T05:07:30;6.73;;;2.93;;
3875;SDS011;1953;51.222;6.624;2023-03-05T05:12:14;9.20;;;3.40;;
3875;SDS011;1953;51.222;6.624;2023-03-05T05:16:56;11.43;;;3.73;;
3875;SDS011;1953;51.222;6.624;2023-03-05T05:21:39;18.33;;;4.40;;
3875;SDS011;1953;51.222;6.624;2023-03-05T05:26:22;8.73;;;4.37;;
3875;SDS011;1953;51.222;6.624;2023-03-05T05:31:09;13.93;;;4.70;;
3875;SDS011;1953;51.222;6.624;2023-03-05T05:35:53;9.87;;;3.20;;
3875;SDS011;1953;51.222;6.624;2023-03-05T05:40:35;10.20;;;4.33;;
3875;SDS011;1953;51.222;6.624;2023-03-05T05:45:18;10.60;;;3.50;;
3875;SDS011;1953;51.222;6.624;2023-03-05T05:50:02;7.77;;;3.43;;
3875;SDS011;1953;51.222;6.624;2023-03-05T05:54:44;11.73;;;4.10;;
3875;SDS011;1953;51.222;6.624;2023-03-05T05:59:27;7.23;;;3.50;;
3875;SDS011;1953;51.222;6.624;2023-03-05T06:04:09;12.93;;;3.50;;
3875;SDS011;1953;51.222;6.624;2023-03-05T06:08:53;13.83;;;3.70;;
3875;SDS011;1953;51.222;6.624;2023-03-05T06:13:37;12.53;;;3.70;;
3875;SDS011;1953;51.222;6.624;2023-03-05T06:18:19;8.23;;;3.80;;
3875;SDS011;1953;51.222;6.624;2023-03-05T06:23:02;11.50;;;4.27;;
3875;SDS011;1953;51.222;6.624;2023-03-05T06:27:46;9.53;;;4.07;;
3875;SDS011;1953;51.222;6.624;2023-03-05T06:32:28;15.70;;;3.80;;
3875;SDS011;1953;51.222;6.624;2023-03-05T06:37:10;11.57;;;4.07;;
3875;SDS011;1953;51.222;6.624;2023-03-05T06:41:53;9.90;;;4.17;;
3875;SDS011;1953;51.222;6.624;2023-03-05T06:46:37;8.90;;;4.37;;
3875;SDS011;1953;51.222;6.624;2023-03-05T06:51:20;11.30;;;4.50;;
3875;SDS011;1953;51.222;6.624;2023-03-05T06:56:04;11.30;;;4.60;;
3875;SDS011;1953;51.222;6.624;2023-03-05T07:00:47;12.20;;;5.00;;
3875;SDS011;1953;51.222;6.624;2023-03-05T07:05:31;12.80;;;4.70;;
3875;SDS011;1953;51.222;6.624;2023-03-05T07:10:13;12.33;;;4.70;;
3875;SDS011;1953;51.222;6.624;2023-03-05T07:14:55;13.10;;;5.43;;
3875;SDS011;1953;51.222;6.624;2023-03-05T07:19:38;12.33;;;5.60;;
3875;SDS011;1953;51.222;6.624;2023-03-05T07:24:22;13.37;;;5.30;;
3875;SDS011;1953;51.222;6.624;2023-03-05T07:29:09;14.57;;;5.03;;
3875;SDS011;1953;51.222;6.624;2023-03-05T07:33:52;14.23;;;5.43;;
3875;SDS011;1953;51.222;6.624;2023-03-05T07:38:35;12.30;;;5.43;;
3875;SDS011;1953;51.222;6.624;2023-03-05T07:43:18;14.57;;;5.87;;
3875;SDS011;1953;51.222;6.624;2023-03-05T07:48:01;11.93;;;5.83;;
3875;SDS011;1953;51.222;6.624;2023-03-05T07:52:43;11.80;;;5.10;;
3875;SDS011;1953;51.222;6.624;2023-03-05T07:57:26;13.87;;;5.80;;
3875;SDS011;1953;51.222;6.624;2023-03-05T08:02:10;13.20;;;6.17;;
3875;SDS011;1953;51.222;6.624;2023-03-05T08:06:53;14.40;;;5.40;;
3875;SDS011;1953;51.222;6.624;2023-03-05T08:11:36;9.93;;;5.70;;
3875;SDS011;1953;51.222;6.624;2023-03-05T08:16:20;13.60;;;5.70;;
3875;SDS011;1953;51.222;6.624;2023-03-05T08:21:13;15.87;;;5.50;;
3875;SDS011;1953;51.222;6.624;2023-03-05T08:25:57;20.27;;;6.43;;
3875;SDS011;1953;51.222;6.624;2023-03-05T08:30:39;12.77;;;6.27;;
3875;SDS011;1953;51.222;6.624;2023-03-05T08:35:22;20.33;;;7.30;;
3875;SDS011;1953;51.222;6.624;2023-03-05T08:40:07;10.83;;;6.17;;
3875;SDS011;1953;51.222;6.624;2023-03-05T08:44:51;11.00;;;6.00;;
3875;SDS011;1953;51.222;6.624;2023-03-05T08:49:33;7.40;;;4.30;;
3875;SDS011;1953;51.222;6.624;2023-03-05T08:54:15;12.17;;;6.03;;
3875;SDS011;1953;51.222;6.624;2023-03-05T08:58:59;10.47;;;5.43;;
3875;SDS011;1953;51.222;6.624;2023-03-05T09:03:42;8.40;;;5.20;;
3875;SDS011;1953;51.222;6.624;2023-03-05T09:08:25;11.33;;;5.63;;
3875;SDS011;1953;51.222;6.624;2023-03-05T09:13:07;12.27;;;6.70;;
3875;SDS011;1953;51.222;6.624;2023-03-05T09:17:52;8.40;;;5.63;;
3875;SDS011;1953;51.222;6.624;2023-03-05T09:22:34;11.40;;;7.20;;
3875;SDS011;1953;51.222;6.624;2023-03-05T09:27:17;11.73;;;6.40;;
3875;SDS011;1953;51.222;6.624;2023-03-05T09:31:59;15.17;;;7.50;;
3875;SDS011;1953;51.222;6.624;2023-03-05T09:36:43;17.93;;;9.33;;
3875;SDS011;1953;51.222;6.624;2023-03-05T09:41:27;17.00;;;9.40;;
3875;SDS011;1953;51.222;6.624;2023-03-05T09:46:24;10.60;;;6.37;;
3875;SDS011;1953;51.222;6.624;2023-03-05T09:51:14;13.90;;;8.70;;
3875;SDS011;1953;51.222;6.624;2023-03-05T09:56:03;16.97;;;11.50;;
3875;SDS011;1953;51.222;6.624;2023-03-05T10:00:52;18.07;;;10.70;;
3875;SDS011;1953;51.222;6.624;2023-03-05T10:05:54;14.53;;;9.23;;
3875;SDS011;1953;51.222;6.624;2023-03-05T10:10:43;19.97;;;13.03;;
3875;SDS011;1953;51.222;6.624;2023-03-05T10:15:32;21.67;;;14.13;;
3875;SDS011;1953;51.222;6.624;2023-03-05T10:20:29;17.90;;;12.60;;
3875;SDS011;1953;51.222;6.624;2023-03-05T10:25:24;18.57;;;11.47;;
3875;SDS011;1953;51.222;6.624;2023-03-05T10:30:20;22.40;;;13.47;;
3875;SDS011;1953;51.222;6.624;2023-03-05T10:35:14;19.50;;;12.27;;
3875;SDS011;1953;51.222;6.624;2023-03-05T10:40:11;23.53;;;13.63;;
3875;SDS011;1953;51.222;6.624;2023-03-05T10:45:11;24.00;;;13.13;;
3875;SDS011;1953;51.222;6.624;2023-03-05T10:49:57;15.83;;;11.37;;
3875;SDS011;1953;51.222;6.624;2023-03-05T10:54:41;17.80;;;11.80;;
3875;SDS011;1953;51.222;6.624;2023-03-05T10:59:24;13.80;;;9.27;;
3875;SDS011;1953;51.222;6.624;2023-03-05T11:04:06;14.43;;;9.47;;
3875;SDS011;1953;51.222;6.624;2023-03-05T11:09:20;17.83;;;9.97;;
3875;SDS011;1953;51.222;6.624;2023-03-05T11:14:08;19.90;;;9.20;;
3875;SDS011;1953;51.222;6.624;2023-03-05T11:19:11;17.40;;;8.80;;
3875;SDS011;1953;51.222;6.624;2023-03-05T11:24:09;15.47;;;9.10;;
3875;SDS011;1953;51.222;6.624;2023-03-05T11:28:55;13.20;;;7.77;;
3875;SDS011;1953;51.222;6.624;2023-03-05T11:33:52;13.20;;;7.20;;
3875;SDS011;1953;51.222;6.624;2023-03-05T11:38:43;11.23;;;7.13;;
3875;SDS011;1953;51.222;6.624;2023-03-05T11:43:28;13.53;;;8.83;;
3875;SDS011;1953;51.222;6.624;2023-03-05T11:48:14;13.13;;;7.20;;
3875;SDS011;1953;51.222;6.624;2023-03-05T11:53:03;14.30;;;10.07;;
3875;SDS011;1953;51.222;6.624;2023-03-05T11:57:49;21.97;;;7.90;;
3875;SDS011;1953;51.222;6.624;2023-03-05T12:02:40;12.43;;;8.00;;
3875;SDS011;1953;51.222;6.624;2023-03-05T12:11:05;6.60;;;5.60;;
3875;SDS011;1953;51.222;6.624;2023-03-05T12:20:59;5.37;;;4.80;;
3875;SDS011;1953;51.222;6.624;2023-03-05T12:25:48;5.80;;;4.07;;
3875;SDS011;1953;51.222;6.624;2023-03-05T12:35:41;6.50;;;4.20;;
3875;SDS011;1953;51.222;6.624;2023-03-05T12:40:24;7.37;;;4.30;;
3875;SDS011;1953;51.222;6.624;2023-03-05T12:45:26;5.07;;;3.87;;
3875;SDS011;1953;51.222;6.624;2023-03-05T12:55:32;7.37;;;4.80;;
3875;SDS011;1953;51.222;6.624;2023-03-05T13:00:17;7.70;;;6.10;;
3875;SDS011;1953;51.222;6.624;2023-03-05T13:05:04;8.70;;;5.40;;
3875;SDS011;1953;51.222;6.624;2023-03-05T13:09:58;6.00;;;5.40;;
3875;SDS011;1953;51.222;6.624;2023-03-05T13:14:41;11.73;;;5.70;;
3875;SDS011;1953;51.222;6.624;2023-03-05T13:19:25;9.00;;;6.70;;
3875;SDS011;1953;51.222;6.624;2023-03-05T13:24:13;7.93;;;5.90;;
3875;SDS011;1953;51.222;6.624;2023-03-05T13:29:10;8.23;;;6.00;;
3875;SDS011;1953;51.222;6.624;2023-03-05T13:33:54;6.03;;;4.97;;
3875;SDS011;1953;51.222;6.624;2023-03-05T13:38:38;7.63;;;5.63;;
3875;SDS011;1953;51.222;6.624;2023-03-05T13:43:24;6.47;;;5.30;;
3875;SDS011;1953;51.222;6.624;2023-03-05T13:48:16;7.67;;;5.17;;
3875;SDS011;1953;51.222;6.624;2023-03-05T13:53:12;6.50;;;5.60;;
3875;SDS011;1953;51.222;6.624;2023-03-05T13:57:57;7.50;;;5.00;;
3875;SDS011;1953;51.222;6.624;2023-03-05T14:02:40;9.30;;;6.80;;
3875;SDS011;1953;51.222;6.624;2023-03-05T14:07:27;8.07;;;6.07;;
3875;SDS011;1953;51.222;6.624;2023-03-05T14:12:21;7.90;;;5.90;;
3875;SDS011;1953;51.222;6.624;2023-03-05T14:17:20;8.53;;;6.57;;
3875;SDS011;1953;51.222;6.624;2023-03-05T14:22:04;11.03;;;6.90;;
3875;SDS011;1953;51.222;6.624;2023-03-05T14:26:49;9.10;;;6.70;;
3875;SDS011;1953;51.222;6.624;2023-03-05T14:31:35;9.50;;;6.40;;
3875;SDS011;1953;51.222;6.624;2023-03-05T14:36:27;7.80;;;6.30;;
3875;SDS011;1953;51.222;6.624;2023-03-05T14:41:21;8.63;;;6.30;;
3875;SDS011;1953;51.222;6.624;2023-03-05T14:46:14;10.90;;;5.60;;
3875;SDS011;1953;51.222;6.624;2023-03-05T14:50:57;7.33;;;5.67;;
3875;SDS011;1953;51.222;6.624;2023-03-05T14:55:41;5.37;;;4.87;;
3875;SDS011;1953;51.222;6.624;2023-03-05T15:00:24;6.90;;;5.10;;
3875;SDS011;1953;51.222;6.624;2023-03-05T15:05:09;8.13;;;5.47;;
3875;SDS011;1953;51.222;6.624;2023-03-05T15:09:52;7.33;;;5.83;;
3875;SDS011;1953;51.222;6.624;2023-03-05T15:14:34;10.73;;;5.90;;
3875;SDS011;1953;51.222;6.624;2023-03-05T15:19:16;9.90;;;6.43;;
3875;SDS011;1953;51.222;6.624;2023-03-05T15:24:00;10.63;;;7.27;;
3875;SDS011;1953;51.222;6.624;2023-03-05T15:28:43;8.80;;;6.03;;
3875;SDS011;1953;51.222;6.624;2023-03-05T15:33:25;9.77;;;6.00;;
3875;SDS011;1953;51.222;6.624;2023-03-05T15:38:08;8.97;;;7.17;;
3875;SDS011;1953;51.222;6.624;2023-03-05T15:42:52;14.23;;;6.17;;
3875;SDS011;1953;51.222;6.624;2023-03-05T15:47:34;12.10;;;7.50;;
3875;SDS011;1953;51.222;6.624;2023-03-05T15:52:17;9.50;;;7.40;;
3875;SDS011;1953;51.222;6.624;2023-03-05T15:56:59;11.47;;;8.00;;
3875;SDS011;1953;51.222;6.624;2023-03-05T16:01:44;9.80;;;7.60;;
3875;SDS011;1953;51.222;6.624;2023-03-05T16:06:29;10.47;;;7.80;;
3875;SDS011;1953;51.222;6.624;2023-03-05T16:11:12;9.37;;;7.30;;
3875;SDS011;1953;51.222;6.624;2023-03-05T16:15:55;14.53;;;7.53;;
3875;SDS011;1953;51.222;6.624;2023-03-05T16:20:40;13.63;;;8.13;;
3875;SDS011;1953;51.222;6.624;2023-03-05T16:25:22;11.83;;;8.33;;
3875;SDS011;1953;51.222;6.624;2023-03-05T16:30:05;14.63;;;8.93;;
3875;SDS011;1953;51.222;6.624;2023-03-05T16:34:49;12.00;;;9.00;;
3875;SDS011;1953;51.222;6.624;2023-03-05T16:39:32;10.47;;;7.47;;
3875;SDS011;1953;51.222;6.624;2023-03-05T16:44:15;14.00;;;8.97;;
3875;SDS011;1953;51.222;6.624;2023-03-05T16:48:57;13.13;;;8.70;;
3875;SDS011;1953;51.222;6.624;2023-03-05T16:53:40;12.27;;;8.53;;
3875;SDS011;1953;51.222;6.624;2023-03-05T16:58:24;13.80;;;9.13;;
3875;SDS011;1953;51.222;6.624;2023-03-05T17:03:06;12.83;;;9.27;;
3875;SDS011;1953;51.222;6.624;2023-03-05T17:07:49;18.10;;;9.80;;
3875;SDS011;1953;51.222;6.624;2023-03-05T17:12:31;13.80;;;10.30;;
3875;SDS011;1953;51.222;6.624;2023-03-05T17:17:15;16.13;;;10.80;;
3875;SDS011;1953;51.222;6.624;2023-03-05T17:21:57;19.20;;;13.10;;
3875;SDS011;1953;51.222;6.624;2023-03-05T17:26:40;26.90;;;15.90;;
3875;SDS011;1953;51.222;6.624;2023-03-05T17:31:22;20.00;;;13.17;;
3875;SDS011;1953;51.222;6.624;2023-03-05T17:36:11;19.43;;;12.83;;
3875;SDS011;1953;51.222;6.624;2023-03-05T17:40:55;21.87;;;14.40;;
3875;SDS011;1953;51.222;6.624;2023-03-05T17:45:37;17.90;;;12.57;;
3875;SDS011;1953;51.222;6.624;2023-03-05T17:50:20;21.77;;;15.10;;
3875;SDS011;1953;51.222;6.624;2023-03-05T17:55:04;21.50;;;13.47;;
3875;SDS011;1953;51.222;6.624;2023-03-05T17:59:49;20.07;;;12.27;;
3875;SDS011;1953;51.222;6.624;2023-03-05T18:04:32;19.87;;;13.67;;
3875;SDS011;1953;51.222;6.624;2023-03-05T18:09:14;23.33;;;14.30;;
3875;SDS011;1953;51.222;6.624;2023-03-05T18:13:58;20.90;;;12.53;;
3875;SDS011;1953;51.222;6.624;2023-03-05T18:18:41;19.57;;;13.20;;
3875;SDS011;1953;51.222;6.624;2023-03-05T18:23:24;18.73;;;12.13;;
3875;SDS011;1953;51.222;6.624;2023-03-05T18:28:07;19.50;;;10.43;;
3875;SDS011;1953;51.222;6.624;2023-03-05T18:32:52;17.33;;;11.47;;
3875;SDS011;1953;51.222;6.624;2023-03-05T18:37:34;16.07;;;10.70;;
3875;SDS011;1953;51.222;6.624;2023-03-05T18:42:19;18.27;;;11.50;;
3875;SDS011;1953;51.222;6.624;2023-03-05T18:47:01;21.53;;;11.03;;
3875;SDS011;1953;51.222;6.624;2023-03-05T18:51:45;14.37;;;10.83;;
3875;SDS011;1953;51.222;6.624;2023-03-05T18:56:28;14.40;;;10.10;;
3875;SDS011;1953;51.222;6.624;2023-03-05T19:01:11;18.93;;;11.80;;
3875;SDS011;1953;51.222;6.624;2023-03-05T19:05:53;17.23;;;10.90;;
3875;SDS011;1953;51.222;6.624;2023-03-05T19:10:37;17.30;;;10.00;;
3875;SDS011;1953;51.222;6.624;2023-03-05T19:15:20;17.03;;;10.50;;
3875;SDS011;1953;51.222;6.624;2023-03-05T19:20:03;15.40;;;9.47;;
3875;SDS011;1953;51.222;6.624;2023-03-05T19:24:47;14.90;;;9.90;;
3875;SDS011;1953;51.222;6.624;2023-03-05T19:29:31;15.33;;;9.87;;
3875;SDS011;1953;51.222;6.624;2023-03-05T19:34:14;18.00;;;11.03;;
3875;SDS011;1953;51.222;6.624;2023-03-05T19:38:57;21.77;;;13.90;;
3875;SDS011;1953;51.222;6.624;2023-03-05T19:43:39;19.30;;;13.20;;
3875;SDS011;1953;51.222;6.624;2023-03-05T19:48:23;20.93;;;13.40;;
3875;SDS011;1953;51.222;6.624;2023-03-05T19:53:06;22.50;;;12.83;;
3875;SDS011;1953;51.222;6.624;2023-03-05T19:57:48;23.13;;;14.10;;
3875;SDS011;1953;51.222;6.624;2023-03-05T20:02:30;20.87;;;12.97;;
3875;SDS011;1953;51.222;6.624;2023-03-05T20:07:14;13.83;;;10.37;;
3875;SDS011;1953;51.222;6.624;2023-03-05T20:11:57;18.20;;;13.07;;
3875;SDS011;1953;51.222;6.624;2023-03-05T20:16:42;17.60;;;10.73;;
3875;SDS011;1953;51.222;6.624;2023-03-05T20:21:25;21.60;;;10.90;;
3875;SDS011;1953;51.222;6.624;2023-03-05T20:26:10;12.30;;;7.90;;
3875;SDS011;1953;51.222;6.624;2023-03-05T20:30:53;14.47;;;8.83;;
3875;SDS011;1953;51.222;6.624;2023-03-05T20:35:36;27.27;;;14.07;;
3875;SDS011;1953;51.222;6.624;2023-03-05T20:40:18;17.30;;;9.90;;
3875;SDS011;1953;51.222;6.624;2023-03-05T20:45:02;19.80;;;11.27;;
3875;SDS011;1953;51.222;6.624;2023-03-05T20:49:45;17.40;;;11.20;;
3875;SDS011;1953;51.222;6.624;2023-03-05T20:54:27;22.97;;;11.53;;
3875;SDS011;1953;51.222;6.624;2023-03-05T20:59:10;20.87;;;11.87;;
3875;SDS011;1953;51.222;6.624;2023-03-05T21:03:54;22.80;;;12.10;;
3875;SDS011;1953;51.222;6.624;2023-03-05T21:08:38;26.20;;;13.93;;
3875;SDS011;1953;51.222;6.624;2023-03-05T21:13:20;24.77;;;14.80;;
3875;SDS011;1953;51.222;6.624;2023-03-05T21:18:03;24.17;;;14.70;;
3875;SDS011;1953;51.222;6.624;2023-03-05T21:22:46;22.97;;;13.90;;
3875;SDS011;1953;51.222;6.624;2023-03-05T21:27:29;37.37;;;15.80;;
3875;SDS011;1953;51.222;6.624;2023-03-05T21:32:12;24.60;;;14.63;;
3875;SDS011;1953;51.222;6.624;2023-03-05T21:36:55;22.90;;;13.83;;
3875;SDS011;1953;51.222;6.624;2023-03-05T21:41:38;20.23;;;13.50;;
3875;SDS011;1953;51.222;6.624;2023-03-05T21:46:21;21.73;;;12.90;;
3875;SDS011;1953;51.222;6.624;2023-03-05T21:51:05;20.20;;;12.20;;
3875;SDS011;1953;51.222;6.624;2023-03-05T21:55:48;28.60;;;13.33;;
3875;SDS011;1953;51.222;6.624;2023-03-05T22:00:45;24.83;;;14.00;;
3875;SDS011;1953;51.222;6.624;2023-03-05T22:05:27;23.77;;;14.00;;
3875;SDS011;1953;51.222;6.624;2023-03-05T22:10:11;26.63;;;14.27;;
3875;SDS011;1953;51.222;6.624;2023-03-05T22:14:54;27.23;;;12.47;;
3875;SDS011;1953;51.222;6.624;2023-03-05T22:19:38;22.10;;;12.70;;
3875;SDS011;1953;51.222;6.624;2023-03-05T22:24:21;21.77;;;13.70;;
3875;SDS011;1953;51.222;6.624;2023-03-05T22:29:05;23.17;;;13.00;;
3875;SDS011;1953;51.222;6.624;2023-03-05T22:33:51;21.63;;;12.90;;
3875;SDS011;1953;51.222;6.624;2023-03-05T22:38:35;19.93;;;11.47;;
3875;SDS011;1953;51.222;6.624;2023-03-05T22:43:17;20.10;;;12.53;;
3875;SDS011;1953;51.222;6.624;2023-03-05T22:48:01;23.77;;;12.80;;
3875;SDS011;1953;51.222;6.624;2023-03-05T22:52:43;17.50;;;10.07;;
3875;SDS011;1953;51.222;6.624;2023-03-05T22:57:27;20.10;;;11.80;;
3875;SDS011;1953;51.222;6.624;2023-03-05T23:02:09;15.77;;;10.23;;
3875;SDS011;1953;51.222;6.624;2023-03-05T23:06:52;19.00;;;12.73;;
3875;SDS011;1953;51.222;6.624;2023-03-05T23:11:34;22.10;;;11.87;;
3875;SDS011;1953;51.222;6.624;2023-03-05T23:16:18;22.50;;;12.33;;
3875;SDS011;1953;51.222;6.624;2023-03-05T23:21:00;20.50;;;12.50;;
3875;SDS011;1953;51.222;6.624;2023-03-05T23:25:43;18.30;;;11.13;;
3875;SDS011;1953;51.222;6.624;2023-03-05T23:30:25;21.87;;;12.10;;
3875;SDS011;1953;51.222;6.624;2023-03-05T23:35:10;16.20;;;8.90;;
3875;SDS011;1953;51.222;6.624;2023-03-05T23:39:53;16.83;;;10.10;;
3875;SDS011;1953;51.222;6.624;2023-03-05T23:44:36;20.67;;;11.80;;
3875;SDS011;1953;51.222;6.624;2023-03-05T23:49:18;23.33;;;11.63;;
3875;SDS011;1953;51.222;6.624;2023-03-05T23:54:02;28.43;;;13.83;;
3875;SDS011;1953;51.222;6.624;2023-03-05T23:58:45;27.70;;;14.97;;
